Time;durP1;ratioP1;P1;durP2;ratioP2;P2;SDS_P1;SDS_P2;PMS_P1;PMS_P2;Temp;Humidity;BMP_temperature;BMP_pressure;BME280_temperature;BME280_humidity;BME280_pressure;Samples;Min_cycle;Max_cycle;Signal;HPM_P1;HPM_P2
2022/09/19 00:01:28;;;;;;;10.40;1.40;;;;;;;21.44;43.03;101916.88;5019930;28;20044;-79
2022/09/19 00:03:56;;;;;;;14.07;1.37;;;;;;;21.15;43.18;101932.13;5031035;28;20132;-79
2022/09/19 00:06:22;;;;;;;13.90;1.40;;;;;;;21.65;42.51;101925.84;5020926;28;20482;-79
2022/09/19 00:08:48;;;;;;;14.23;2.10;;;;;;;21.74;42.19;101929.94;5011393;28;20034;-79
2022/09/19 00:11:17;;;;;;;21.67;1.90;;;;;;;21.39;42.67;101929.50;5012732;28;20405;-79
2022/09/19 00:13:47;;;;;;;16.73;1.97;;;;;;;21.35;42.85;101925.22;5015665;28;20033;-79
2022/09/19 00:16:20;;;;;;;14.20;2.07;;;;;;;21.09;43.68;101927.06;5013545;28;20038;-78
2022/09/19 00:18:50;;;;;;;16.27;2.17;;;;;;;21.58;42.28;101926.16;5011644;28;20026;-79
2022/09/19 00:21:25;;;;;;;14.70;2.20;;;;;;;21.35;42.87;101925.22;5012741;28;20112;-78
2022/09/19 00:26:35;;;;;;;14.70;1.77;;;;;;;21.02;42.85;101920.25;5052804;28;20083;-79
2022/09/19 00:29:01;;;;;;;14.10;1.73;;;;;;;21.40;42.34;101925.91;5034015;28;20024;-79
2022/09/19 00:31:27;;;;;;;11.80;1.70;;;;;;;21.11;42.98;101934.97;5029699;28;20025;-79
2022/09/19 00:33:53;;;;;;;10.57;1.87;;;;;;;21.05;42.79;101925.44;5031236;28;20021;-79
2022/09/19 00:36:19;;;;;;;16.93;3.67;;;;;;;21.21;41.42;101930.19;5031052;28;20113;-79
2022/09/19 00:38:45;;;;;;;10.20;1.90;;;;;;;21.26;41.03;101929.09;5030344;28;20112;-76
2022/09/19 00:41:19;;;;;;;13.97;2.03;;;;;;;21.12;42.31;101934.06;5029875;28;20029;-79
2022/09/19 00:43:48;;;;;;;12.47;1.83;;;;;;;21.16;41.79;101935.69;5020609;28;20048;-79
2022/09/19 00:46:15;;;;;;;9.73;1.20;;;;;;;20.84;41.95;101927.06;5010616;28;20124;-79
2022/09/19 00:48:42;;;;;;;11.77;1.70;;;;;;;20.72;42.12;101933.72;5011437;28;20434;-79
2022/09/19 00:51:53;;;;;;;9.00;1.53;;;;;;;20.53;41.67;101940.56;5025552;28;20033;-79
2022/09/19 00:54:23;;;;;;;18.27;2.13;;;;;;;20.61;41.19;101936.72;5029009;28;20045;-79
2022/09/19 00:56:52;;;;;;;14.47;1.93;;;;;;;20.77;41.07;101936.19;5012362;28;20540;-78
2022/09/19 00:59:19;;;;;;;8.37;1.40;;;;;;;20.45;41.32;101936.34;5010616;28;20121;-79
2022/09/19 01:01:46;;;;;;;5.97;1.40;;;;;;;20.29;40.99;101944.00;5043449;28;20057;-79
2022/09/19 01:04:20;;;;;;;12.57;1.47;;;;;;;20.02;42.53;101952.81;5011088;28;20033;-78
2022/09/19 01:06:56;;;;;;;18.23;1.60;;;;;;;19.97;42.02;101950.34;5029826;28;20037;-78
2022/09/19 01:09:35;;;;;;;18.37;1.63;;;;;;;20.13;40.89;101946.28;5030226;28;20079;-78
2022/09/19 01:12:26;;;;;;;19.37;2.60;;;;;;;20.32;41.21;101943.03;5016408;28;20052;-79
2022/09/19 01:15:15;;;;;;;13.17;1.90;;;;;;;20.62;40.22;101948.19;5019458;28;20029;-78
2022/09/19 01:17:46;;;;;;;11.10;1.33;;;;;;;21.10;40.45;101954.50;5064170;28;20132;-79
2022/09/19 01:20:44;;;;;;;11.43;1.53;;;;;;;20.88;40.29;101949.09;5030151;28;20037;-78
2022/09/19 01:23:25;;;;;;;10.87;1.70;;;;;;;21.49;39.76;101946.81;5031339;28;20037;-79
2022/09/19 01:26:17;;;;;;;15.90;3.13;;;;;;;21.70;38.92;101946.94;5027774;28;20036;-79
2022/09/19 01:28:57;;;;;;;14.07;1.63;;;;;;;21.65;39.85;101946.25;5011567;28;20038;-79
2022/09/19 01:31:37;;;;;;;9.83;2.60;;;;;;;21.71;39.16;101951.34;5021738;28;20052;-79
2022/09/19 01:34:02;;;;;;;16.52;2.25;;;;;;;21.66;40.00;101954.16;5030349;28;20029;-79
2022/09/19 01:36:35;;;;;;;9.70;1.33;;;;;;;21.22;40.17;101950.53;5028539;28;20038;-79
2022/09/19 01:39:03;;;;;;;15.13;1.80;;;;;;;21.02;41.53;101955.66;5014378;28;20029;-79
2022/09/19 01:41:30;;;;;;;14.02;1.95;;;;;;;21.11;40.55;101957.09;5015222;28;20038;-79
2022/09/19 01:44:05;;;;;;;11.02;2.30;;;;;;;21.05;41.11;101951.13;5014142;28;20192;-79
2022/09/19 01:46:30;;;;;;;11.40;1.30;;;;;;;20.82;41.20;101956.34;5047496;28;20066;-79
2022/09/19 01:49:28;;;;;;;14.82;2.05;;;;;;;20.63;41.73;101961.41;5049888;28;20076;-78
2022/09/19 01:52:04;;;;;;;9.77;1.35;;;;;;;20.77;41.53;101958.34;5030839;28;20065;-78
2022/09/19 01:54:50;;;;;;;13.50;1.90;;;;;;;20.55;41.47;101951.97;5016894;28;20092;-79
2022/09/19 01:57:43;;;;;;;15.93;2.73;;;;;;;20.49;41.07;101948.59;5020601;28;20039;-79
2022/09/19 02:00:11;;;;;;;13.80;1.70;;;;;;;20.57;41.04;101944.84;5030917;28;20037;-79
2022/09/19 02:02:43;;;;;;;15.07;2.13;;;;;;;20.67;41.14;101956.88;5055408;28;20060;-79
2022/09/19 02:05:15;;;;;;;16.27;1.53;;;;;;;20.63;40.83;101955.25;5021233;28;20021;-79
2022/09/19 02:08:16;;;;;;;17.42;2.13;;;;;;;20.44;40.60;101955.88;5014110;28;20108;-79
2022/09/19 02:10:54;;;;;;;13.20;1.30;;;;;;;20.64;40.53;101963.16;4998651;28;20030;-78
2022/09/19 02:13:24;;;;;;;17.37;2.73;;;;;;;20.35;41.22;101966.81;5018847;28;20037;-79
2022/09/19 02:16:01;;;;;;;10.70;1.50;;;;;;;20.75;40.16;101961.97;5032358;28;20025;-79
2022/09/19 02:18:34;;;;;;;12.20;1.40;;;;;;;20.49;41.02;101969.84;5033633;28;20029;-79
2022/09/19 02:21:03;;;;;;;;;;;;;;;20.43;40.96;101964.75;5034701;28;20028;-79
2022/09/19 02:23:32;;;;;;;10.17;1.30;;;;;;;20.51;40.78;101970.69;5015132;28;19917;-79
2022/09/19 02:26:02;;;;;;;12.50;1.90;;;;;;;20.39;40.20;101973.75;5055086;28;20063;-79
2022/09/19 02:28:34;;;;;;;6.90;1.40;;;;;;;20.59;40.62;101972.19;5040771;28;20025;-79
2022/09/19 02:30:59;;;;;;;10.80;1.15;;;;;;;20.68;40.30;101974.59;5020252;28;20044;-79
2022/09/19 02:33:27;;;;;;;12.10;2.30;;;;;;;20.83;39.89;101979.34;5014149;28;20482;-79
2022/09/19 02:36:06;;;;;;;9.43;1.27;;;;;;;21.14;39.96;101978.28;5025889;28;20477;-79
2022/09/19 02:38:47;;;;;;;10.10;1.30;;;;;;;21.12;39.76;101969.47;5031933;28;20108;-79
2022/09/19 02:41:23;;;;;;;10.63;1.40;;;;;;;20.87;39.81;101973.94;5030779;28;20025;-79
2022/09/19 02:44:01;;;;;;;10.57;1.60;;;;;;;21.32;39.12;101975.84;5064182;28;20569;-79
2022/09/19 02:46:40;;;;;;;14.00;1.13;;;;;;;21.26;38.19;101965.44;5033161;28;20088;-79
2022/09/19 02:49:14;;;;;;;7.13;1.03;;;;;;;21.44;38.77;101966.53;5034333;28;20036;-79
2022/09/19 02:51:49;;;;;;;9.98;1.60;;;;;;;21.13;38.18;101965.91;5015306;28;20057;-79
2022/09/19 02:54:26;;;;;;;12.30;2.25;;;;;;;21.43;38.22;101965.69;5013514;28;20032;-79
2022/09/19 02:56:56;;;;;;;12.80;1.30;;;;;;;21.70;38.94;101970.91;5014089;28;20057;-79
2022/09/19 02:59:28;;;;;;;11.65;1.48;;;;;;;21.66;38.21;101961.28;5014167;28;20505;-79
2022/09/19 03:02:27;;;;;;;11.07;1.50;;;;;;;21.68;38.49;101972.75;5031466;28;20041;-79
2022/09/19 03:05:02;;;;;;;7.65;1.17;;;;;;;21.70;37.98;101973.56;5033024;28;20035;-79
2022/09/19 03:07:33;;;;;;;14.25;1.30;;;;;;;21.38;39.26;101972.06;5034249;28;20060;-78
2022/09/19 03:10:10;;;;;;;8.97;0.90;;;;;;;21.30;39.25;101972.38;5029236;28;20172;-79
2022/09/19 03:12:47;;;;;;;10.23;1.75;;;;;;;21.09;38.75;101980.22;5013775;28;20049;-79
2022/09/19 03:15:13;;;;;;;11.63;1.93;;;;;;;21.22;39.13;101979.78;5028932;28;20021;-79
2022/09/19 03:17:43;;;;;;;12.93;2.73;;;;;;;21.57;38.82;101974.94;5012996;28;20048;-79
2022/09/19 03:20:11;;;;;;;6.03;1.10;;;;;;;21.10;39.67;101971.34;5012623;28;20080;-79
2022/09/19 03:22:38;;;;;;;11.90;1.33;;;;;;;21.28;39.54;101976.88;5012921;28;20057;-79
2022/09/19 03:25:04;;;;;;;9.40;1.60;;;;;;;21.19;40.50;101978.94;5037549;28;20401;-79
2022/09/19 03:27:30;;;;;;;8.57;1.10;;;;;;;21.14;40.06;101980.94;5019117;28;20030;-79
2022/09/19 03:29:55;;;;;;;8.33;1.50;;;;;;;21.00;40.38;101975.22;5015608;28;20022;-79
2022/09/19 03:32:25;;;;;;;9.67;1.43;;;;;;;21.22;40.46;101979.78;5052660;28;20031;-79
2022/09/19 03:34:53;;;;;;;13.40;2.27;;;;;;;21.35;39.42;101981.06;5052918;28;20023;-79
2022/09/19 03:37:18;;;;;;;8.63;1.27;;;;;;;21.02;40.12;101981.38;5016623;28;20083;-79
2022/09/19 03:39:45;;;;;;;11.77;1.37;;;;;;;21.18;39.25;101982.56;5013025;28;20132;-79
2022/09/19 03:42:10;;;;;;;11.00;1.43;;;;;;;20.91;39.07;101978.22;5023515;28;20034;-79
2022/09/19 03:44:36;;;;;;;10.20;2.22;;;;;;;21.43;39.05;101979.00;5013792;28;20389;-79
2022/09/19 03:47:01;;;;;;;7.93;1.10;;;;;;;21.38;39.40;101980.06;5020080;28;20485;-79
2022/09/19 03:49:27;;;;;;;13.25;2.60;;;;;;;21.45;38.69;101981.59;5031800;28;20112;-79
2022/09/19 03:51:53;;;;;;;5.57;1.70;;;;;;;20.88;40.57;101986.28;5014346;28;20069;-79
2022/09/19 03:54:18;;;;;;;14.17;1.60;;;;;;;21.15;39.93;101985.31;5012634;28;20069;-79
2022/09/19 03:56:44;;;;;;;7.63;1.20;;;;;;;20.92;40.43;101985.28;5011981;28;20026;-79
2022/09/19 03:59:09;;;;;;;6.73;1.60;;;;;;;20.99;40.46;101994.75;5012593;28;20026;-79
2022/09/19 04:01:35;;;;;;;9.17;1.20;;;;;;;20.81;41.32;101996.28;5057562;28;20036;-79
2022/09/19 04:04:01;;;;;;;5.15;1.38;;;;;;;20.86;39.56;101982.84;5022963;28;20069;-79
2022/09/19 04:06:26;;;;;;;13.00;1.23;;;;;;;20.95;39.99;101990.47;5028337;28;20564;-79
2022/09/19 04:08:52;;;;;;;9.70;1.60;;;;;;;20.57;40.91;101993.50;5028267;28;20027;-79
2022/09/19 04:11:17;;;;;;;7.07;1.60;;;;;;;20.61;41.25;101995.13;5011695;28;20033;-79
2022/09/19 04:13:42;;;;;;;3.73;1.30;;;;;;;20.53;40.42;101991.03;5012690;28;20087;-79
2022/09/19 04:16:08;;;;;;;8.47;1.67;;;;;;;20.59;40.54;101989.00;5010845;28;20029;-79
2022/09/19 04:18:34;;;;;;;12.23;1.17;;;;;;;20.65;40.48;101998.56;5011836;28;20040;-79
2022/09/19 04:21:00;;;;;;;9.20;1.47;;;;;;;20.88;39.79;101996.94;5019195;28;20024;-78
2022/09/19 04:23:26;;;;;;;12.33;1.30;;;;;;;20.76;40.56;102009.72;5025327;28;20072;-79
2022/09/19 04:25:52;;;;;;;10.77;1.47;;;;;;;20.64;40.42;102000.34;5051394;28;20013;-79
2022/09/19 04:28:18;;;;;;;13.87;1.93;;;;;;;20.84;40.02;102007.66;5051372;28;20028;-79
2022/09/19 04:30:44;;;;;;;13.13;1.60;;;;;;;20.94;39.34;102007.34;5042833;28;20021;-79
2022/09/19 04:33:12;;;;;;;10.07;1.30;;;;;;;20.60;40.53;102013.78;5030149;28;20567;-79
2022/09/19 04:35:38;;;;;;;7.17;1.40;;;;;;;20.69;40.35;102005.53;5031129;28;20027;-79
2022/09/19 04:38:06;;;;;;;14.23;1.33;;;;;;;20.38;41.50;102014.50;5018214;28;20030;-79
2022/09/19 04:40:38;;;;;;;13.13;1.53;;;;;;;20.42;41.30;102015.28;5017291;28;20486;-79
2022/09/19 04:43:03;;;;;;;12.13;2.03;;;;;;;20.36;40.10;102011.03;5031059;28;20056;-79
2022/09/19 04:45:29;;;;;;;12.60;1.20;;;;;;;20.41;40.61;102014.38;5023441;28;20038;-79
2022/09/19 04:47:58;;;;;;;9.57;1.37;;;;;;;20.13;41.08;102019.72;5010901;28;20022;-79
2022/09/19 04:50:23;;;;;;;7.90;1.37;;;;;;;20.33;40.87;102021.72;5011662;28;20026;-79
2022/09/19 04:52:50;;;;;;;8.97;1.10;;;;;;;20.38;40.55;102019.81;5015649;28;20084;-79
2022/09/19 04:55:15;;;;;;;8.83;1.80;;;;;;;20.41;40.98;102024.16;5020763;28;20500;-79
2022/09/19 04:57:40;;;;;;;9.90;1.47;;;;;;;20.54;40.26;102020.19;5026949;28;20022;-79
2022/09/19 05:00:07;;;;;;;8.53;1.03;;;;;;;20.19;40.52;102029.28;5039136;28;20022;-78
2022/09/19 05:02:32;;;;;;;10.47;1.43;;;;;;;20.21;40.48;102027.44;5030574;28;20026;-78
2022/09/19 05:04:59;;;;;;;11.07;1.40;;;;;;;19.58;41.43;102030.19;5031556;28;20390;-78
2022/09/19 05:07:33;;;;;;;7.83;1.30;;;;;;;20.19;41.31;102031.94;5029193;28;20068;-78
2022/09/19 05:09:59;;;;;;;12.43;2.33;;;;;;;19.70;40.66;102037.78;5032342;28;20029;-79
2022/09/19 05:12:25;;;;;;;10.60;1.30;;;;;;;20.15;42.25;102036.44;5055595;28;20083;-79
2022/09/19 05:14:51;;;;;;;8.70;1.40;;;;;;;20.34;40.32;102029.63;5029382;28;20108;-78
2022/09/19 05:17:17;;;;;;;10.20;1.30;;;;;;;20.44;41.27;102034.66;5032562;28;20050;-79
2022/09/19 05:19:44;;;;;;;6.40;1.10;;;;;;;20.69;39.70;102034.78;5014378;28;20058;-79
2022/09/19 05:22:10;;;;;;;8.23;1.20;;;;;;;20.77;40.57;102032.72;5016434;28;20105;-79
2022/09/19 05:24:37;;;;;;;11.27;1.83;;;;;;;20.37;40.95;102043.75;5035328;28;20110;-79
2022/09/19 05:27:03;;;;;;;7.40;1.63;;;;;;;20.97;39.86;102040.00;5052102;28;20024;-79
2022/09/19 05:29:32;;;;;;;10.23;1.13;;;;;;;21.01;39.56;102038.97;5024522;28;20140;-79
2022/09/19 05:32:02;;;;;;;3.63;1.27;;;;;;;21.02;39.43;102042.50;5014772;28;20117;-79
2022/09/19 05:34:27;;;;;;;10.50;1.50;;;;;;;20.72;39.50;102039.97;5014513;28;20153;-79
2022/09/19 05:36:52;;;;;;;16.60;3.97;;;;;;;20.65;39.85;102049.91;5028126;28;20057;-79
2022/09/19 05:39:18;;;;;;;9.83;1.30;;;;;;;21.01;39.60;102051.38;5033273;28;20026;-79
2022/09/19 05:41:43;;;;;;;10.00;1.20;;;;;;;20.70;39.98;102047.09;5024193;28;20041;-79
2022/09/19 05:44:09;;;;;;;10.30;1.33;;;;;;;20.84;39.39;102055.50;5034834;28;20153;-77
2022/09/19 05:46:34;;;;;;;7.33;1.37;;;;;;;20.62;40.20;102054.44;5035391;28;20045;-79
2022/09/19 05:48:59;;;;;;;8.33;1.43;;;;;;;20.58;40.02;102056.34;5040468;28;20561;-80
2022/09/19 05:51:25;;;;;;;6.03;1.20;;;;;;;20.98;39.19;102051.50;5023524;28;20026;-79
2022/09/19 05:53:53;;;;;;;7.30;1.20;;;;;;;21.15;39.07;102051.75;5047269;28;20053;-79
2022/09/19 05:56:19;;;;;;;7.90;1.20;;;;;;;20.95;39.44;102051.59;5014557;28;20026;-79
2022/09/19 05:58:45;;;;;;;7.13;1.30;;;;;;;20.86;39.51;102051.94;5015892;28;20025;-79
2022/09/19 06:01:12;;;;;;;13.50;3.63;;;;;;;20.93;39.87;102056.09;5015455;28;20382;-79
2022/09/19 06:03:38;;;;;;;6.70;1.30;;;;;;;21.00;39.43;102052.31;5029043;28;20033;-79
2022/09/19 06:06:18;;;;;;;8.97;1.30;;;;;;;21.22;38.98;102060.38;5028189;28;20517;-79
2022/09/19 06:08:45;;;;;;;18.73;1.92;;;;;;;21.15;39.24;102070.38;5014273;28;20038;-79
2022/09/19 06:11:10;;;;;;;9.75;1.60;;;;;;;21.19;39.19;102061.38;5024577;28;20079;-79
2022/09/19 06:16:20;;;;;;;14.63;1.35;;;;;;;21.41;39.11;102065.06;5033693;28;20052;-78
2022/09/19 06:18:46;;;;;;;7.97;1.90;;;;;;;21.33;38.64;102068.00;5024571;28;20034;-78
2022/09/19 06:21:12;;;;;;;11.07;2.03;;;;;;;21.23;38.88;102071.91;5047486;28;20038;-79
2022/09/19 06:23:38;;;;;;;7.63;1.65;;;;;;;21.71;39.08;102072.84;5014761;28;20038;-79
2022/09/19 06:26:04;;;;;;;14.55;1.75;;;;;;;21.41;39.33;102075.69;5038141;28;20045;-79
2022/09/19 06:28:29;;;;;;;14.27;1.63;;;;;;;21.66;39.18;102070.38;5027839;28;20466;-79
2022/09/19 06:30:54;;;;;;;15.80;1.92;;;;;;;21.67;38.90;102078.28;5033351;28;20160;-79
2022/09/19 06:33:20;;;;;;;8.60;1.40;;;;;;;22.13;38.48;102081.03;5017911;28;20030;-79
2022/09/19 06:35:45;;;;;;;11.30;1.40;;;;;;;21.77;38.40;102088.59;5029686;28;20037;-78
2022/09/19 06:38:11;;;;;;;9.98;1.52;;;;;;;22.04;38.47;102081.38;5032856;28;20033;-79
2022/09/19 06:40:38;;;;;;;13.65;2.70;;;;;;;22.03;38.55;102090.28;5030948;28;20467;-79
2022/09/19 06:43:05;;;;;;;10.43;1.38;;;;;;;22.60;38.06;102087.19;5023564;28;20588;-79
2022/09/19 06:45:34;;;;;;;28.35;5.22;;;;;;;22.43;38.17;102088.72;5032254;28;20037;-79
2022/09/19 06:48:00;;;;;;;7.20;1.40;;;;;;;22.20;37.81;102095.81;5021671;28;20079;-79
2022/09/19 06:50:27;;;;;;;5.55;1.20;;;;;;;22.78;37.99;102105.09;5014050;28;20026;-79
2022/09/19 06:52:54;;;;;;;14.75;2.28;;;;;;;22.84;37.66;102099.47;5020043;28;20060;-79
2022/09/19 06:55:20;;;;;;;8.27;1.25;;;;;;;21.76;38.93;102098.38;5033684;28;20076;-78
2022/09/19 06:57:56;;;;;;;6.22;1.27;;;;;;;22.64;37.72;102107.44;5038258;28;20025;-78
2022/09/19 07:00:24;;;;;;;9.35;1.40;;;;;;;22.76;37.50;102106.94;5034427;28;20088;-79
2022/09/19 07:02:52;;;;;;;10.10;1.50;;;;;;;22.69;37.78;102108.13;5019472;28;20021;-79
2022/09/19 07:05:18;;;;;;;14.23;1.63;;;;;;;22.67;38.01;102107.34;5029581;28;20026;-79
2022/09/19 07:07:43;;;;;;;11.20;2.08;;;;;;;22.53;37.72;102116.75;5032768;28;20064;-78
2022/09/19 07:10:08;;;;;;;11.10;1.70;;;;;;;22.76;37.72;102114.94;5033414;28;20029;-79
2022/09/19 07:12:34;;;;;;;15.88;2.10;;;;;;;22.76;37.85;102112.25;5030667;28;20399;-78
2022/09/19 07:14:59;;;;;;;8.80;1.73;;;;;;;22.70;38.18;102112.53;5028944;28;20049;-80
2022/09/19 07:17:26;;;;;;;15.23;1.67;;;;;;;22.87;38.16;102112.72;5032993;28;20032;-79
2022/09/19 07:19:53;;;;;;;12.85;2.30;;;;;;;22.19;39.61;102118.03;5033775;28;20033;-79
2022/09/19 07:22:20;;;;;;;9.07;1.60;;;;;;;22.82;38.90;102114.69;5031353;28;20040;-80
2022/09/19 07:24:46;;;;;;;7.80;1.00;;;;;;;22.70;39.02;102117.84;5036552;28;20026;-80
2022/09/19 07:27:11;;;;;;;9.63;1.23;;;;;;;22.57;39.29;102112.13;5049079;28;20040;-80
2022/09/19 07:29:37;;;;;;;11.57;1.50;;;;;;;22.92;38.59;102119.66;5034427;28;20025;-80
2022/09/19 07:32:02;;;;;;;10.02;1.25;;;;;;;22.99;39.17;102119.31;5035017;28;20033;-80
2022/09/19 07:34:27;;;;;;;17.30;1.42;;;;;;;23.38;39.11;102125.69;5036309;28;20615;-80
2022/09/19 07:36:53;;;;;;;7.95;1.40;;;;;;;23.83;39.00;102132.56;5032979;28;20091;-80
2022/09/19 07:39:18;;;;;;;9.90;1.27;;;;;;;22.79;39.41;102125.47;5015208;28;20026;-81
2022/09/19 07:41:46;;;;;;;11.15;1.67;;;;;;;24.80;36.54;102118.25;5030241;28;20036;-80
2022/09/19 07:44:11;;;;;;;14.02;1.60;;;;;;;23.16;37.79;102137.31;5049365;28;20060;-81
2022/09/19 07:46:37;;;;;;;13.32;1.88;;;;;;;22.31;39.20;102140.66;5034235;28;20029;-78
2022/09/19 07:49:03;;;;;;;7.93;3.28;;;;;;;22.06;39.16;102142.53;5027797;28;20041;-79
2022/09/19 07:51:30;;;;;;;11.05;1.33;;;;;;;22.99;37.98;102140.63;5015160;28;20034;-80
2022/09/19 07:53:56;;;;;;;11.43;2.30;;;;;;;23.62;37.02;102145.09;5033309;28;20134;-81
2022/09/19 07:56:21;;;;;;;14.45;1.73;;;;;;;23.37;37.67;102156.84;5034526;28;20029;-79
2022/09/19 07:58:47;;;;;;;12.93;1.13;;;;;;;22.49;39.74;102168.41;5020382;28;20036;-79
2022/09/19 08:01:12;;;;;;;10.70;1.15;;;;;;;22.00;41.14;102164.94;5020698;28;20486;-80
2022/09/19 08:03:37;;;;;;;9.18;1.15;;;;;;;22.63;40.23;102159.00;5034801;28;20075;-81
2022/09/19 08:06:03;;;;;;;7.90;1.15;;;;;;;23.82;38.19;102162.91;5031851;28;20091;-80
2022/09/19 08:08:28;;;;;;;14.23;1.40;;;;;;;24.05;37.46;102169.00;5039311;28;20037;-81
2022/09/19 08:11:01;;;;;;;7.68;1.20;;;;;;;24.24;36.76;102169.03;5027437;28;20033;-80
2022/09/19 08:13:27;;;;;;;6.68;0.80;;;;;;;24.80;35.88;102167.28;5025764;28;20514;-81
2022/09/19 08:15:52;;;;;;;16.65;1.55;;;;;;;25.10;36.06;102169.38;5028128;28;20037;-81
2022/09/19 08:18:20;;;;;;;10.13;1.25;;;;;;;24.83;35.61;102177.81;5026864;28;20030;-80
2022/09/19 08:20:46;;;;;;;12.00;1.30;;;;;;;25.55;35.15;102178.69;5022135;28;20028;-81
2022/09/19 08:23:14;;;;;;;8.93;1.25;;;;;;;24.48;36.33;102175.03;5011878;28;20109;-81
2022/09/19 08:25:46;;;;;;;11.00;1.20;;;;;;;25.37;34.74;102179.63;5030569;28;20064;-80
2022/09/19 08:28:16;;;;;;;9.55;1.00;;;;;;;25.16;34.80;102178.88;5037143;28;20030;-81
2022/09/19 08:30:43;;;;;;;8.32;1.25;;;;;;;25.20;35.17;102173.28;5023093;28;20025;-81
2022/09/19 08:33:10;;;;;;;8.85;1.13;;;;;;;25.07;34.69;102188.22;5030244;28;20040;-80
2022/09/19 08:35:37;;;;;;;10.25;1.23;;;;;;;25.34;34.29;102182.47;5061403;28;20029;-81
2022/09/19 08:38:04;;;;;;;10.57;1.30;;;;;;;26.00;34.26;102175.44;5031628;28;20133;-80
2022/09/19 08:40:34;;;;;;;12.80;2.13;;;;;;;24.62;35.93;102189.53;5031983;28;20052;-80
2022/09/19 08:43:47;;;;;;;14.93;1.65;;;;;;;24.73;35.46;102197.94;5018539;28;20049;-80
2022/09/19 08:46:15;;;;;;;9.45;1.88;;;;;;;24.74;35.23;102202.31;5008400;28;20041;-81
2022/09/19 08:49:03;;;;;;;11.73;1.30;;;;;;;25.57;34.10;102200.00;5031681;28;20033;-80
2022/09/19 08:51:33;;;;;;;4.82;1.27;;;;;;;24.96;34.27;102198.59;5026126;28;20087;-80
2022/09/19 08:54:06;;;;;;;11.98;1.50;;;;;;;25.20;33.59;102191.16;5029673;28;20120;-79
2022/09/19 08:56:31;;;;;;;;;;;;;;;25.97;32.17;102186.31;5030891;28;20133;-80
2022/09/19 08:59:04;;;;;;;12.48;1.33;;;;;;;24.68;33.99;102195.47;5026537;28;19999;-79
2022/09/19 09:01:36;;;;;;;;;;;;;;;24.62;34.51;102194.88;5029005;28;20034;-80
2022/09/19 09:04:17;;;;;;;9.30;1.10;;;;;;;24.57;34.75;102192.41;5015240;28;19916;-80
2022/09/19 09:07:01;;;;;;;10.13;1.13;;;;;;;25.93;32.93;102190.13;5057586;28;20021;-80
2022/09/19 09:09:46;;;;;;;9.63;1.17;;;;;;;25.43;32.95;102194.50;5033411;28;20025;-80
2022/09/19 09:12:26;;;;;;;8.50;1.27;;;;;;;25.13;33.76;102206.66;5031914;28;20033;-79
2022/09/19 09:14:51;;;;;;;7.00;1.33;;;;;;;24.88;34.24;102196.28;5018637;28;20022;-80
2022/09/19 09:17:38;;;;;;;5.07;1.50;;;;;;;24.16;33.83;102198.75;5029972;28;20084;-80
2022/09/19 09:20:08;;;;;;;8.98;0.95;;;;;;;23.73;34.56;102200.66;5030694;28;20037;-80
2022/09/19 09:22:41;;;;;;;5.47;0.93;;;;;;;23.63;34.81;102202.00;5030812;28;20071;-79
2022/09/19 09:25:29;;;;;;;3.55;0.82;;;;;;;24.08;35.21;102200.91;5013991;28;20482;-80
2022/09/19 09:28:04;;;;;;;7.75;1.33;;;;;;;24.75;33.38;102195.19;5029027;28;20017;-80
2022/09/19 09:30:32;;;;;;;7.63;1.40;;;;;;;25.41;33.11;102197.25;5020842;28;20029;-80
2022/09/19 09:33:18;;;;;;;13.95;1.27;;;;;;;24.02;33.59;102207.41;5029217;28;20097;-79
2022/09/19 09:35:49;;;;;;;5.53;1.00;;;;;;;25.07;33.08;102206.94;5030689;28;20176;-81
2022/09/19 09:38:35;;;;;;;5.18;1.20;;;;;;;25.64;32.24;102200.56;5028831;28;20044;-80
2022/09/19 09:44:14;;;;;;;6.03;1.00;;;;;;;25.43;31.79;102200.72;5017711;28;20048;-79
2022/09/19 09:47:14;;;;;;;4.55;1.48;;;;;;;25.38;31.11;102202.78;5045586;28;20458;-81
2022/09/19 09:49:43;;;;;;;10.32;1.02;;;;;;;25.54;31.69;102206.38;5027145;28;20116;-80
2022/09/19 09:52:18;;;;;;;8.68;0.93;;;;;;;24.10;33.83;102212.41;5031252;28;20044;-78
2022/09/19 09:57:41;;;;;;;6.40;1.45;;;;;;;25.37;31.63;102206.38;5038647;28;20033;-79
2022/09/19 10:05:57;;;;;;;8.05;1.23;;;;;;;25.22;32.12;102222.25;5014141;28;20048;-80
2022/09/19 10:08:58;;;;;;;6.93;1.00;;;;;;;24.03;33.51;102208.28;5021753;28;20033;-78
2022/09/19 10:11:40;;;;;;;8.65;1.20;;;;;;;24.55;34.17;102213.88;5014547;28;20073;-80
2022/09/19 10:14:18;;;;;;;6.97;1.15;;;;;;;25.64;32.10;102200.56;5012891;28;20034;-80
2022/09/19 10:16:46;;;;;;;6.20;0.90;;;;;;;24.54;32.56;102209.47;5028698;28;20054;-78
2022/09/19 10:19:12;;;;;;;6.85;1.02;;;;;;;24.73;31.03;102214.81;5032547;28;20061;-79
2022/09/19 10:21:38;;;;;;;8.93;1.60;;;;;;;25.07;31.14;102206.94;5033342;28;20064;-79
2022/09/19 10:24:41;;;;;;;8.85;1.00;;;;;;;26.70;29.52;102207.38;5043967;28;20022;-79
2022/09/19 10:27:30;;;;;;;;;;;;;;;25.27;30.38;102205.09;5044915;28;20037;-80
2022/09/19 10:30:01;;;;;;;5.97;0.85;;;;;;;24.78;30.26;102211.91;5025250;28;19917;-81
2022/09/19 10:32:38;;;;;;;7.47;1.38;;;;;;;25.90;30.31;102208.06;5030073;28;20515;-81
2022/09/19 10:35:31;;;;;;;4.28;0.73;;;;;;;25.53;31.32;102210.00;5017752;28;20033;-80
2022/09/19 10:38:14;;;;;;;7.55;0.90;;;;;;;25.59;31.10;102213.31;5021066;28;20029;-79
2022/09/19 10:40:58;;;;;;;9.25;1.23;;;;;;;26.11;30.27;102205.22;5030266;28;20036;-80
2022/09/19 10:43:30;;;;;;;6.53;1.17;;;;;;;25.62;30.42;102207.78;5043830;28;20409;-79
2022/09/19 10:45:58;;;;;;;7.93;1.45;;;;;;;25.49;31.37;102216.47;5024054;28;20037;-79
2022/09/19 10:48:31;;;;;;;4.15;0.80;;;;;;;25.54;29.77;102211.75;5031789;28;20029;-80
2022/09/19 10:50:58;;;;;;;7.18;1.30;;;;;;;24.76;31.04;102218.28;5030156;28;20171;-80
2022/09/19 10:53:33;;;;;;;6.57;1.05;;;;;;;25.25;30.24;102218.53;5044516;28;20056;-77
2022/09/19 10:56:11;;;;;;;7.55;1.48;;;;;;;25.22;30.57;102222.25;5031351;28;20029;-80
2022/09/19 10:58:39;;;;;;;4.72;1.10;;;;;;;25.36;29.86;102213.56;5032355;28;20032;-79
2022/09/19 11:01:18;;;;;;;5.53;0.98;;;;;;;24.38;30.57;102213.78;5030639;28;20029;-79
2022/09/19 11:04:01;;;;;;;9.07;0.98;;;;;;;25.04;30.05;102215.97;5028105;28;20140;-79
2022/09/19 11:06:27;;;;;;;5.75;0.88;;;;;;;26.26;29.12;102213.38;5031138;28;20037;-80
2022/09/19 11:08:53;;;;;;;7.03;1.15;;;;;;;25.60;29.26;102215.06;5030303;28;20029;-80
2022/09/19 11:11:37;;;;;;;6.03;0.73;;;;;;;25.19;29.66;102222.38;5029769;28;20029;-80
2022/09/19 11:14:26;;;;;;;7.10;1.20;;;;;;;25.84;28.92;102219.13;5029021;28;20166;-79
2022/09/19 11:17:32;;;;;;;7.63;1.10;;;;;;;25.43;29.97;102224.81;5010775;28;20026;-79
2022/09/19 11:20:16;;;;;;;7.32;0.90;;;;;;;25.97;29.16;102219.31;5040851;28;20025;-79
2022/09/19 11:23:07;;;;;;;3.33;0.93;;;;;;;25.14;29.55;102219.09;5032059;28;20061;-79
2022/09/19 11:25:35;;;;;;;8.30;1.20;;;;;;;25.94;29.04;102215.94;5025722;28;20095;-79
2022/09/19 11:28:16;;;;;;;12.00;2.03;;;;;;;26.85;28.32;102211.84;5033646;28;20114;-80
2022/09/19 11:30:56;;;;;;;6.25;1.10;;;;;;;27.09;29.00;102220.31;5042128;28;20139;-78
2022/09/19 11:33:38;;;;;;;4.60;1.27;;;;;;;25.90;29.44;102212.56;5011005;28;20109;-79
2022/09/19 11:36:13;;;;;;;7.22;1.10;;;;;;;26.21;29.39;102211.81;5014921;28;20931;-80
2022/09/19 11:39:13;;;;;;;5.63;0.93;;;;;;;24.48;31.37;102225.78;5029293;28;20029;-79
2022/09/19 11:41:41;;;;;;;4.13;1.02;;;;;;;24.50;31.85;102223.91;5022754;28;20038;-79
2022/09/19 11:44:43;;;;;;;6.38;1.13;;;;;;;25.73;30.68;102221.47;5047785;28;20061;-78
2022/09/19 11:47:38;;;;;;;11.55;1.42;;;;;;;25.54;30.68;102216.22;5013833;28;20056;-79
2022/09/19 11:50:41;;;;;;;6.78;1.00;;;;;;;24.13;33.51;102222.06;5047396;28;20045;-77
2022/09/19 11:53:38;;;;;;;13.00;1.67;;;;;;;25.43;31.82;102219.47;5045539;28;20037;-79
2022/09/19 11:56:27;;;;;;;4.93;1.52;;;;;;;24.71;31.52;102215.84;5009485;28;20297;-79
2022/09/19 11:59:13;;;;;;;6.28;1.00;;;;;;;24.95;32.14;102218.25;5034695;28;20041;-79
2022/09/19 12:02:09;;;;;;;5.70;1.58;;;;;;;25.01;31.26;102215.28;5046087;28;20037;-79